Latest Weather Observations for Gudgenby

IDN60801

Issued at 1:12 am EDT Monday 26 October 2020 (issued every 10 minutes, with the page automatically refreshed every 10 minutes)

About weather observations | Map of weather stations | Latest weather observations for NSW | Other Formats
Station Details ID: 250072 Name: GUDGENBY (PCS) Lat: -35.73 Lon: 148.98 Height: 1035.0 m

Portable automatic weather stations (PAWS) are operated by other organisations, such as Fire and Emergency Services, and are included here by agreement. Portable stations may be deployed to a location for a short period and their location may be subject to change without notice. Wind observations from these stations are provided from heights of either three (3) or ten (10) metres above ground level (AGL).

Data from the previous 72 hours. | See also: Recent months for locations in New South Wales
Date/Time
EDT
Temp
°C
App
Temp
°C
Dew
Point
°C
Rel
Hum
%
Delta-T
°C
Wind Press
QNH
hPa
Press
MSL
hPa
Rain since
9am
mm
Dir  Spd
km/h
Gust
km/h
Spd
kts
Gust
kts
26/01:00am 6.5 0.4 4.8 89 0.8 SSE 26 33 14 18 - - 0.8
26/12:50am 6.6 0.9 4.8 88 0.8 SE 24 33 13 18 - - 0.8
26/12:40am 6.6 0.9 4.7 88 0.9 SE 24 37 13 20 - - 0.8
26/12:30am 6.5 2.5 4.8 89 0.8 SSE 15 19 8 10 - - 0.8
26/12:20am 6.5 1.6 4.9 89 0.7 SSE 20 30 11 16 - - 0.6
26/12:10am 6.5 1.2 4.9 89 0.7 SE 22 28 12 15 - - 0.6
26/12:00am 6.4 1.5 5.1 91 0.6 SE 20 26 11 14 - - 0.6
 
Date/Time
EDT
Temp
°C
App
Temp
°C
Dew
Point
°C
Rel
Hum
%
Delta-T
°C
Wind Press
QNH
hPa
Press
MSL
hPa
Rain since
9am
mm
Dir  Spd
km/h
Gust
km/h
Spd
kts
Gust
kts
25/11:50pm 6.5 1.2 5.2 91 0.6 SE 22 26 12 14 - - 0.6
25/11:40pm 6.7 1.8 5.3 91 0.7 SE 20 26 11 14 - - 0.4
25/11:30pm 6.8 2.1 5.0 88 0.8 ESE 19 28 10 15 - - 0.4
25/11:20pm 6.7 2.0 5.2 90 0.7 SE 19 24 10 13 - - 0.2
25/11:10pm 6.8 1.2 5.3 90 0.7 SE 24 28 13 15 - - 0.2
25/11:00pm 7.0 1.4 5.3 89 0.8 SE 24 28 13 15 - - 0.2
25/10:50pm 7.4 1.9 5.9 90 0.7 SE 24 30 13 16 - - 0.0
25/10:40pm 7.8 3.2 5.4 85 1.1 SE 19 26 10 14 - - 0.0
25/10:30pm 7.8 1.8 5.2 84 1.2 SE 26 37 14 20 - - 0.0
25/10:20pm 7.7 1.3 5.1 83 1.2 SE 28 35 15 19 - - 0.0
25/10:10pm 7.6 2.8 5.7 88 0.9 SE 20 30 11 16 - - 0.0
25/10:00pm 7.7 1.8 5.7 87 1.0 SE 26 39 14 21 - - 0.0
25/09:50pm 7.7 1.8 5.6 86 1.0 SSE 26 32 14 17 - - 0.0
25/09:40pm 7.8 1.9 5.9 88 0.9 SSE 26 35 14 19 - - 0.0
25/09:30pm 7.7 3.1 5.5 86 1.0 SSE 19 32 10 17 - - 0.0
25/09:20pm 7.5 3.3 5.8 89 0.8 S 17 24 9 13 - - 0.0
25/09:10pm 7.5 3.7 5.7 88 0.9 S 15 20 8 11 - - 0.0
25/09:00pm 7.5 4.1 5.7 88 0.9 S 13 15 7 8 - - 0.0
25/08:50pm 7.5 4.0 5.6 88 0.9 SSE 13 19 7 10 - - 0.0
25/08:40pm 7.5 3.6 5.5 87 1.0 S 15 22 8 12 - - 0.0
25/08:30pm 7.5 2.9 5.5 87 1.0 S 19 24 10 13 - - 0.0
25/08:20pm 7.6 2.9 5.2 85 1.1 S 19 26 10 14 - - 0.0
25/08:10pm 7.5 3.2 5.1 85 1.1 S 17 20 9 11 - - 0.0
25/08:00pm 7.4 2.7 5.0 85 1.1 SSW 19 20 10 11 - - 0.0
25/07:50pm 7.4 2.6 4.8 83 1.2 S 19 28 10 15 - - 0.0
25/07:40pm 7.2 2.5 5.1 86 1.0 S 19 26 10 14 - - 0.0
25/07:30pm 7.0 2.1 4.9 86 1.0 S 20 26 11 14 - - 0.0
25/07:20pm 6.9 2.0 5.0 88 0.9 S 20 20 11 11 - - 0.0
25/07:10pm 6.7 1.4 4.9 88 0.8 S 22 24 12 13 - - 0.0
25/07:00pm 6.6 1.7 4.9 89 0.8 S 20 24 11 13 - - 0.0
25/06:50pm 6.6 1.2 4.6 87 0.9 S 22 26 12 14 - - 0.0
25/06:40pm 6.5 0.7 4.6 88 0.9 S 24 26 13 14 - - 0.0
25/06:30pm 6.5 0.7 4.6 88 0.9 S 24 26 13 14 - - 0.0
25/06:20pm 6.5 0.4 4.7 88 0.8 S 26 28 14 15 - - 0.0
25/06:10pm 6.7 1.4 5.2 90 0.7 S 22 26 12 14 - - 0.0
25/06:00pm 6.8 1.1 5.1 89 0.8 S 24 26 13 14 - - 0.0
25/05:50pm 6.7 1.0 5.1 89 0.7 S 24 28 13 15 - - 0.0
25/05:40pm 6.8 1.1 5.1 89 0.8 S 24 28 13 15 - - 0.0
25/05:30pm 6.8 1.2 5.3 90 0.7 S 24 28 13 15 - - 0.0
25/05:20pm 6.8 0.8 5.2 89 0.8 S 26 26 14 14 - - 0.0
25/05:10pm 6.9 0.8 4.9 87 0.9 S 26 30 14 16 - - 0.0
25/05:00pm 7.0 1.3 4.9 86 1.0 S 24 26 13 14 - - 0.0
25/04:50pm 7.1 1.4 4.7 85 1.1 S 24 28 13 15 - - 0.0
25/04:40pm 7.2 0.7 4.9 85 1.1 S 28 32 15 17 - - 0.0
25/04:30pm 7.2 0.3 4.6 83 1.2 S 30 33 16 18 - - 0.0
25/04:20pm 7.2 1.5 4.7 84 1.2 S 24 30 13 16 - - 0.0
25/04:10pm 7.2 0.7 4.8 85 1.1 S 28 33 15 18 - - 0.0
25/04:00pm 7.3 0.8 4.7 83 1.2 S 28 33 15 18 - - 0.0
25/03:50pm 7.4 1.3 4.9 84 1.2 S 26 32 14 17 - - 0.0
25/03:40pm 7.4 0.5 4.8 83 1.2 S 30 33 16 18 - - 0.0
25/03:30pm 7.4 0.9 4.6 82 1.3 S 28 33 15 18 - - 0.0
25/03:20pm 7.4 1.0 5.4 87 0.9 S 28 30 15 16 - - 0.0
25/03:10pm 7.5 1.0 4.9 83 1.2 S 28 32 15 17 - - 0.0
25/03:00pm 7.3 1.1 4.2 81 1.4 S 26 28 14 15 - - 0.0
25/02:50pm 7.1 0.3 4.9 86 1.0 S 30 33 16 18 - - 0.0
25/02:40pm 7.1 -0.3 4.2 82 1.3 S 32 37 17 20 - - 0.0
25/02:30pm 7.3 0.5 4.9 85 1.1 S 30 32 16 17 - - 0.0
25/02:20pm 7.5 1.0 4.9 83 1.2 S 28 32 15 17 - - 0.0
25/02:10pm 7.5 1.3 4.5 81 1.4 S 26 32 14 17 - - 0.0
25/02:00pm 7.6 0.3 4.3 79 1.5 S 32 33 17 18 - - 0.0
25/01:50pm 7.8 0.9 4.4 79 1.6 S 30 32 16 17 - - 0.0
25/01:40pm 8.1 2.0 4.6 78 1.6 S 26 30 14 16 - - 0.0
25/01:30pm 8.2 2.1 4.7 78 1.6 S 26 30 14 16 - - 0.0
25/01:20pm 8.5 3.2 4.9 78 1.7 S 22 26 12 14 - - 0.0
25/01:10pm 8.2 2.9 5.2 81 1.4 S 22 26 12 14 - - 0.0
25/01:00pm 7.8 2.5 4.8 81 1.4 S 22 24 12 13 - - 0.0
25/12:50pm 7.4 1.2 4.3 81 1.4 S 26 28 14 15 - - 0.0
25/12:40pm 7.5 1.6 4.0 78 1.6 S 24 28 13 15 - - 0.0
25/12:30pm 6.9 0.6 3.5 79 1.5 S 26 30 14 16 - - 0.0
25/12:20pm 6.5 -0.2 3.7 82 1.3 S 28 32 15 17 - - 0.0
25/12:10pm 6.5 0.2 3.9 83 1.2 S 26 32 14 17 - - 0.0
25/12:00pm 6.5 0.5 3.6 82 1.3 S 24 26 13 14 - - 0.0
25/11:50am 6.1 0.3 4.2 88 0.9 S 24 26 13 14 - - 0.0
25/11:40am 6.1 0.6 3.8 85 1.0 S 22 26 12 14 - - 0.0
25/11:30am 6.3 0.8 3.8 84 1.1 S 22 26 12 14 - - 0.0
25/11:20am 6.1 -0.2 3.9 86 1.0 S 26 28 14 15 - - 0.0
25/11:10am 5.8 -0.6 3.0 82 1.2 S 26 30 14 16 - - 0.0
25/11:00am 6.0 -0.8 3.1 82 1.3 S 28 32 15 17 - - 0.0
25/10:50am 5.9 -0.6 2.9 81 1.3 S 26 30 14 16 - - 0.0
25/10:40am 5.8 -0.6 3.0 82 1.2 S 26 32 14 17 - - 0.0
25/10:30am 5.6 -1.3 2.8 82 1.2 S 28 32 15 17 - - 0.0
25/10:20am 5.5 -0.6 2.7 82 1.2 S 24 28 13 15 - - 0.0
25/10:10am 5.1 -1.4 2.9 86 1.0 S 26 30 14 16 - - 0.0
25/10:00am 5.1 -1.1 2.2 81 1.3 S 24 26 13 14 - - 11.0
25/09:50am 4.8 -1.7 2.6 86 1.0 S 26 30 14 16 - - 11.0
25/09:40am 4.6 -2.4 2.2 84 1.0 S 28 32 15 17 - - 11.0
25/09:30am 4.5 -2.5 2.1 84 1.0 S 28 32 15 17 - - 11.0
25/09:20am 4.3 -2.3 2.2 86 0.9 S 26 30 14 16 - - 11.0
25/09:10am 4.1 -2.2 1.8 85 1.0 S 24 28 13 15 - - 11.0
25/09:00am 3.8 -2.8 2.0 88 0.8 S 26 30 14 16 - - 11.0
25/08:50am 3.7 -3.4 1.6 86 0.9 SSE 28 32 15 17 - - 11.0
25/08:40am 3.6 -2.3 1.7 87 0.8 S 22 28 12 15 - - 11.0
25/08:30am 3.6 -2.3 1.8 88 0.8 S 22 26 12 14 - - 11.0
25/08:20am 3.4 -2.5 1.6 88 0.8 S 22 26 12 14 - - 11.0
25/08:10am 3.2 -3.5 1.5 89 0.7 S 26 28 14 15 - - 11.0
25/08:00am 2.9 -4.3 0.9 87 0.8 S 28 32 15 17 - - 11.0
25/07:50am 2.8 -4.3 1.1 88 0.7 S 28 30 15 16 - - 11.0
25/07:40am 2.8 -4.3 1.3 90 0.6 S 28 30 15 16 - - 11.0
25/07:30am 2.7 -4.1 1.1 89 0.7 SSE 26 28 14 15 - - 11.0
25/07:20am 2.6 -4.6 0.9 88 0.7 SSE 28 32 15 17 - - 11.0
25/07:10am 2.6 -4.6 0.9 88 0.7 SSE 28 30 15 16 - - 11.0
25/07:00am 2.6 -4.2 0.8 88 0.7 S 26 30 14 16 - - 11.0
25/06:50am 2.5 -5.2 0.2 85 0.9 S 30 32 16 17 - - 11.0
25/06:40am 2.4 -4.8 0.4 87 0.8 SSE 28 32 15 17 - - 11.0
25/06:30am 2.3 -5.0 0.3 87 0.8 SSE 28 32 15 17 - - 11.0
25/06:20am 2.2 -5.4 0.4 88 0.7 SSE 30 33 16 18 - - 11.0
25/06:10am 2.2 -5.4 0.4 88 0.7 SSE 30 32 16 17 - - 11.0
25/06:00am 2.5 -4.8 0.2 85 0.9 S 28 32 15 17 - - 10.8
25/05:50am 2.8 -4.5 0.2 83 1.0 S 28 32 15 17 - - 10.8
25/05:40am 3.1 -3.7 1.0 86 0.9 S 26 32 14 17 - - 10.8
25/05:30am 3.8 -3.6 2.0 88 0.8 S 30 33 16 18 - - 10.8
25/05:20am 4.4 -1.6 3.3 93 0.5 S 24 28 13 15 - - 10.6
25/05:10am 4.6 -1.0 3.7 94 0.4 SSE 22 26 12 14 - - 10.6
25/05:00am 4.7 -1.2 3.9 95 0.4 SSE 24 28 13 15 - - 10.6
25/04:50am 5.0 -0.1 4.1 94 0.4 SSE 20 26 11 14 - - 10.6
25/04:40am 5.1 0.2 4.2 94 0.4 SSE 19 24 10 13 - - 10.6
25/04:30am 5.2 0.1 4.1 93 0.5 SSE 20 24 11 13 - - 10.6
25/04:20am 5.3 -0.6 3.9 91 0.6 SSE 24 26 13 14 - - 10.6
25/04:10am 5.2 -0.3 3.8 91 0.6 SSE 22 30 12 16 - - 10.6
25/04:00am 5.1 -0.4 4.0 93 0.5 SSE 22 24 12 13 - - 10.6
25/03:50am 5.2 -0.6 4.2 93 0.5 SSE 24 28 13 15 - - 10.6
25/03:40am 5.2 -0.6 4.2 93 0.5 SSE 24 28 13 15 - - 10.4
25/03:30am 5.3 -0.5 4.2 93 0.5 SSE 24 30 13 16 - - 10.4
25/03:20am 5.3 -0.1 4.4 94 0.4 SSE 22 24 12 13 - - 10.2
25/03:10am 5.4 -0.1 4.2 92 0.5 SSE 22 24 12 13 - - 10.2
25/03:00am 5.5 -1.1 4.2 91 0.6 SSE 28 32 15 17 - - 10.0
25/02:50am 5.7 -0.6 4.0 89 0.8 S 26 32 14 17 - - 10.0
25/02:40am 5.7 -0.1 4.3 91 0.6 SSE 24 28 13 15 - - 10.0
25/02:30am 5.7 -0.5 4.5 92 0.5 SSE 26 30 14 16 - - 10.0
25/02:20am 5.8 0.4 4.5 91 0.6 SSE 22 28 12 15 - - 10.0
25/02:10am 6.0 -0.1 4.7 91 0.6 SSE 26 30 14 16 - - 10.0
25/02:00am 6.1 0.7 4.5 89 0.7 SSE 22 24 12 13 - - 10.0
25/01:50am 6.1 -0.1 4.5 89 0.7 SSE 26 30 14 16 - - 10.0
25/01:40am 6.1 -0.4 4.5 89 0.7 SSE 28 30 15 16 - - 10.0
25/01:30am 6.1 -0.4 4.5 89 0.7 SSE 28 32 15 17 - - 10.0
25/01:20am 6.1 0.0 4.6 90 0.7 SSE 26 28 14 15 - - 10.0
25/01:10am 6.1 0.3 4.4 89 0.8 SSE 24 32 13 17 - - 10.0
25/01:00am 6.1 0.4 4.9 92 0.6 SSE 24 28 13 15 - - 10.0
25/12:50am 6.2 -0.7 4.7 90 0.7 SSE 30 32 16 17 - - 10.0
25/12:40am 6.4 -0.5 4.6 88 0.8 SSE 30 32 16 17 - - 10.0
25/12:30am 6.5 0.4 4.6 88 0.9 SSE 26 32 14 17 - - 10.0
25/12:20am 6.6 -0.3 4.5 86 1.0 SSE 30 33 16 18 - - 10.0
25/12:10am 6.5 0.4 4.8 89 0.8 SSE 26 30 14 16 - - 10.0
25/12:00am 6.4 0.4 5.1 91 0.6 SSE 26 30 14 16 - - 10.0
 
Date/Time
EDT
Temp
°C
App
Temp
°C
Dew
Point
°C
Rel
Hum
%
Delta-T
°C
Wind Press
QNH
hPa
Press
MSL
hPa
Rain since
9am
mm
Dir  Spd
km/h
Gust
km/h
Spd
kts
Gust
kts
24/11:50pm 6.4 0.0 5.1 91 0.6 SSE 28 32 15 17 - - 10.0
24/11:40pm 6.6 0.2 5.1 90 0.7 SSE 28 30 15 16 - - 10.0
24/11:30pm 6.6 0.5 5.0 89 0.7 SSE 26 32 14 17 - - 10.0
24/11:20pm 6.7 -0.1 5.1 89 0.7 SSE 30 33 16 18 - - 10.0
24/11:10pm 6.8 0.4 5.0 88 0.8 SSE 28 33 15 18 - - 10.0
24/11:00pm 6.8 0.8 5.2 89 0.8 SSE 26 30 14 16 - - 10.0
24/10:50pm 7.0 0.6 5.4 89 0.8 SSE 28 33 15 18 - - 10.0
24/10:40pm 7.1 0.8 5.7 91 0.7 SSE 28 30 15 16 - - 10.0
24/10:30pm 7.2 1.7 5.8 91 0.7 SSE 24 33 13 18 - - 10.0
24/10:20pm 7.3 1.9 6.2 93 0.5 SSE 24 28 13 15 - - 10.0
24/10:10pm 7.6 1.8 6.4 92 0.6 SSE 26 30 14 16 - - 10.0
24/10:00pm 8.0 2.3 6.9 93 0.5 S 26 33 14 18 - - 10.0
24/09:50pm 8.2 2.5 6.8 91 0.7 S 26 32 14 17 - - 10.0
24/09:40pm 8.2 2.1 6.7 90 0.7 S 28 32 15 17 - - 10.0
24/09:30pm 8.3 1.3 6.9 91 0.7 S 33 39 18 21 - - 10.0
24/09:20pm 8.4 1.6 7.0 91 0.7 S 32 41 17 22 - - 10.0
24/09:10pm 8.8 3.2 7.1 89 0.8 S 26 35 14 19 - - 10.0
24/09:00pm 9.0 4.3 7.9 93 0.6 S 22 24 12 13 - - 10.0
24/08:50pm 9.2 4.2 7.9 92 0.7 SSE 24 26 13 14 - - 10.0
24/08:40pm 9.4 4.1 8.3 93 0.6 SSE 26 32 14 17 - - 9.8
24/08:30pm 9.6 3.2 8.7 94 0.5 SSE 32 35 17 19 - - 9.8
24/08:20pm 10.3 2.7 9.2 93 0.6 S 39 44 21 24 - - 9.0
24/08:10pm 12.5 10.0 11.0 90 0.8 SE 15 32 8 17 - - 8.6
24/08:00pm 13.2 11.5 12.5 95 0.4 N 13 17 7 9 - - 8.4
24/07:50pm 13.6 10.6 12.5 93 0.6 N 20 24 11 13 - - 6.6
24/07:40pm 13.9 12.3 12.7 92 0.7 N 13 15 7 8 - - 4.8
24/07:30pm 14.3 12.4 13.0 92 0.8 NNE 15 17 8 9 - - 4.2
24/07:20pm 14.6 13.0 12.9 89 1.0 NE 13 15 7 8 - - 3.8
24/07:10pm 15.0 13.7 12.5 85 1.4 NE 11 13 6 7 - - 3.0
24/07:00pm 15.5 14.0 12.0 79 2.0 NE 11 13 6 7 - - 2.6
24/06:50pm 15.5 13.9 11.6 77 2.2 NNE 11 13 6 7 - - 2.6
24/06:40pm 15.7 14.5 11.7 77 2.3 NE 9 11 5 6 - - 2.6
24/06:30pm 16.2 15.5 11.5 73 2.7 NE 6 7 3 4 - - 2.6
24/06:20pm 16.7 16.1 10.5 67 3.5 NE 4 6 2 3 - - 2.6
24/06:10pm 17.0 16.4 10.5 65 3.6 NE 4 6 2 3 - - 2.6
24/06:00pm 17.1 15.9 10.3 64 3.8 ENE 7 9 4 5 - - 2.6
24/05:50pm 17.1 16.2 11.2 68 3.4 ENE 7 7 4 4 - - 2.6
24/05:40pm 17.6 17.0 10.4 62 4.0 ESE 4 7 2 4 - - 2.6
24/05:30pm 17.6 16.8 9.6 59 4.4 SSW 4 7 2 4 - - 2.6
24/05:20pm 17.5 16.2 9.3 58 4.5 W 6 7 3 4 - - 2.6
24/05:10pm 17.1 15.4 9.9 62 4.0 SW 9 17 5 9 - - 2.6
24/05:00pm 16.9 15.2 9.8 63 3.9 W 9 13 5 7 - - 2.6
24/04:50pm 16.7 14.4 10.4 66 3.5 W 13 20 7 11 - - 2.6
24/04:40pm 16.7 14.2 9.6 63 3.9 SW 13 19 7 10 - - 2.6
24/04:30pm 17.0 15.8 9.7 62 4.0 W 6 11 3 6 - - 2.6
24/04:20pm 16.9 16.1 10.9 67 3.4 N 6 7 3 4 - - 2.6
24/04:10pm 16.9 16.4 10.9 67 3.4 WSW 4 7 2 4 - - 2.6
24/04:00pm 16.6 15.2 10.9 69 3.2 NNW 9 11 5 6 - - 2.6
24/03:50pm 16.6 15.5 10.0 65 3.7 NW 6 9 3 5 - - 2.6
24/03:40pm 16.5 15.2 10.0 65 3.6 WNW 7 13 4 7 - - 2.6
24/03:30pm 16.7 14.8 10.5 67 3.5 WNW 11 15 6 8 - - 2.6
24/03:20pm 17.0 14.9 11.0 68 3.4 W 13 20 7 11 - - 2.6
24/03:10pm 17.1 13.4 10.0 63 3.9 W 20 28 11 15 - - 2.6
24/03:00pm 17.4 13.8 10.6 64 3.8 W 20 37 11 20 - - 2.6
24/02:50pm 17.8 15.3 11.1 65 3.8 W 15 24 8 13 - - 2.6
24/02:40pm 17.4 17.5 13.9 80 2.1 WSW 6 7 3 4 - - 2.6
24/02:30pm 17.1 15.9 11.5 69 3.2 NW 9 13 5 7 - - 2.6
24/02:20pm 16.5 15.7 13.0 80 2.1 NW 9 17 5 9 - - 2.6
24/02:10pm 16.3 13.7 13.1 81 1.9 NW 19 24 10 13 - - 2.2
24/02:00pm 17.1 14.1 12.4 74 2.7 NW 20 22 11 12 - - 2.0
24/01:50pm 16.9 13.3 13.0 78 2.3 NW 24 26 13 14 - - 2.0
24/01:40pm 18.2 14.9 12.7 70 3.2 NW 22 30 12 16 - - 2.0
24/01:30pm 18.5 14.7 11.1 62 4.2 WNW 22 28 12 15 - - 2.0
24/01:20pm 18.6 14.6 11.7 64 4.0 NW 24 33 13 18 - - 2.0
24/01:10pm 18.9 16.1 12.5 66 3.8 WNW 19 24 10 13 - - 2.0
24/01:00pm 18.4 13.7 13.1 71 3.1 NW 30 35 16 19 - - 2.0
24/12:50pm 18.1 13.1 13.9 76 2.5 NW 33 39 18 21 - - 2.0
24/12:40pm 18.3 13.2 13.2 72 3.0 NNW 32 37 17 20 - - 2.0
24/12:30pm 18.3 13.1 12.9 71 3.2 NW 32 39 17 21 - - 2.0
24/12:20pm 17.8 12.2 13.3 75 2.7 NW 35 39 19 21 - - 2.0
24/12:10pm 17.7 11.4 12.3 70 3.1 NW 37 46 20 25 - - 2.0
24/12:00pm 17.7 13.0 13.3 75 2.6 NW 30 35 16 19 - - 2.0
24/11:50am 17.5 12.3 13.4 77 2.4 NW 33 39 18 21 - - 2.0
24/11:40am 17.2 13.0 13.6 79 2.1 NW 28 28 15 15 - - 2.0
24/11:30am 16.9 14.2 13.6 81 2.0 NNW 20 26 11 14 - - 2.0
24/11:20am 16.0 14.7 13.7 86 1.4 N 13 17 7 9 - - 2.0
24/11:10am 15.5 13.4 13.7 89 1.1 NNW 17 20 9 11 - - 2.0
24/11:00am 15.1 11.7 13.8 92 0.8 NW 24 26 13 14 - - 2.0
24/10:50am 15.3 11.9 13.8 91 0.9 NNW 24 33 13 18 - - 1.6
24/10:40am 15.7 12.2 13.3 86 1.4 NNW 24 33 13 18 - - 1.2
24/10:30am 15.5 12.9 13.9 90 0.9 N 20 24 11 13 - - 1.0
24/10:20am 15.1 13.8 13.6 91 0.9 NNW 13 20 7 11 - - 0.6
24/10:10am 15.1 12.1 13.8 92 0.8 N 22 26 12 14 - - 0.2
24/10:00am 15.1 11.7 13.7 91 0.8 N 24 28 13 15 - - 13.2
24/09:50am 15.2 12.2 13.7 91 0.9 N 22 24 12 13 - - 13.0
24/09:40am 15.3 12.2 13.4 88 1.1 N 22 26 12 14 - - 13.0
24/09:30am 15.7 13.4 14.1 90 1.0 N 19 22 10 12 - - 12.8
24/09:20am 15.9 14.4 14.1 89 1.1 N 15 20 8 11 - - 12.8
24/09:10am 16.1 14.1 13.9 87 1.3 NNW 17 22 9 12 - - 12.8
24/09:00am 16.0 14.0 13.9 87 1.2 NNW 17 24 9 13 - - 12.8
24/08:50am 15.6 15.2 14.1 91 0.9 NE 9 13 5 7 - - 12.4
24/08:40am 15.4 15.0 14.1 92 0.8 NE 9 13 5 7 - - 12.4
24/08:30am 15.1 15.1 14.2 94 0.5 NNE 7 9 4 5 - - 12.2
24/08:20am 14.6 14.1 13.8 95 0.5 NE 9 11 5 6 - - 12.2
24/08:10am 14.4 13.1 13.8 96 0.4 NE 13 15 7 8 - - 12.2
24/08:00am 14.2 12.9 13.7 97 0.3 NE 13 13 7 7 - - 12.2
24/07:50am 14.0 13.1 13.6 97 0.2 NE 11 15 6 8 - - 12.0
24/07:40am 13.9 13.0 13.6 98 0.2 NE 11 13 6 7 - - 11.8
24/07:30am 13.8 13.7 13.4 97 0.2 E 6 7 3 4 - - 11.6
24/07:20am 13.8 13.7 13.4 97 0.2 S 6 9 3 5 - - 10.8
24/07:10am 13.8 14.1 13.3 97 0.3 SE 4 4 2 2 - - 9.6
24/07:00am 13.7 13.6 13.2 97 0.3 NE 6 9 3 5 - - 9.4
24/06:50am 13.5 12.8 13.2 98 0.2 NE 9 13 5 7 - - 9.4
24/06:40am 13.4 11.9 13.2 99 0.1 NNE 13 15 7 8 - - 9.0
24/06:30am 13.6 12.9 13.1 97 0.3 NNE 9 11 5 6 - - 8.6
24/06:20am 13.6 12.5 13.0 96 0.3 NE 11 11 6 6 - - 7.0
24/06:10am 13.5 12.7 12.9 96 0.3 NNE 9 11 5 6 - - 6.4
24/06:00am 13.4 11.8 12.9 97 0.3 NNE 13 15 7 8 - - 6.2
24/05:50am 13.5 11.9 12.9 96 0.3 NNE 13 15 7 8 - - 6.2
24/05:40am 13.6 12.4 12.8 95 0.5 N 11 15 6 8 - - 6.2
24/05:30am 13.8 13.0 12.8 94 0.6 NNW 9 13 5 7 - - 6.2
24/05:20am 13.9 12.2 12.6 92 0.7 NW 13 15 7 8 - - 6.0
24/05:10am 14.2 13.2 12.3 88 1.1 NNW 9 17 5 9 - - 5.8
24/05:00am 14.2 13.1 12.0 87 1.3 NNW 9 9 5 5 - - 5.4
24/04:50am 14.1 13.0 11.9 86 1.2 NW 9 11 5 6 - - 5.4
24/04:40am 14.0 13.3 11.9 87 1.2 NW 7 9 4 5 - - 5.4
24/04:30am 13.9 12.4 11.9 88 1.1 NNW 11 13 6 7 - - 5.4
24/04:20am 13.7 13.1 11.8 88 1.1 NNW 6 7 3 4 - - 5.4
24/04:10am 13.5 13.3 11.8 89 1.0 NNW 4 6 2 3 - - 5.4
24/04:00am 13.3 12.5 11.8 91 0.8 NW 7 7 4 4 - - 5.4
24/03:50am 13.2 12.1 12.0 92 0.7 NW 9 11 5 6 - - 5.2
24/03:40am 13.2 11.0 12.0 92 0.7 NW 15 17 8 9 - - 5.2
24/03:30am 13.4 11.6 12.1 92 0.7 NW 13 15 7 8 - - 5.0
24/03:20am 13.7 10.5 11.9 89 1.0 NNW 20 24 11 13 - - 5.0
24/03:10am 13.9 9.5 11.7 86 1.2 NNW 26 30 14 16 - - 5.0
24/03:00am 13.7 9.6 11.5 86 1.2 NNW 24 30 13 16 - - 5.0
24/02:50am 13.7 7.9 11.6 87 1.2 N 33 44 18 24 - - 5.0
24/02:40am 13.7 7.2 11.6 87 1.2 NNW 37 39 20 21 - - 4.8
24/02:30am 13.6 6.8 11.8 89 1.0 NW 39 46 21 25 - - 4.8
24/02:20am 14.3 6.8 12.0 86 1.3 NNW 43 52 23 28 - - 4.6
24/02:10am 14.5 7.2 11.5 82 1.7 NNW 41 54 22 29 - - 4.4
24/01:50am 14.2 8.7 11.9 86 1.3 N 32 43 17 23 - - 4.4
24/01:40am 14.0 9.5 12.6 91 0.8 N 28 35 15 19 - - 4.4
24/01:30am 14.1 9.2 12.5 90 0.9 N 30 39 16 21 - - 4.4
24/01:20am 13.9 10.6 12.8 93 0.6 N 22 26 12 14 - - 3.8
24/01:10am 14.0 11.2 12.6 91 0.8 N 19 20 10 11 - - 3.2
24/01:00am 14.1 11.2 12.9 92 0.7 NNW 20 26 11 14 - - 3.0
24/12:50am 14.0 11.2 12.6 91 0.8 NNW 19 28 10 15 - - 3.0
24/12:40am 13.7 9.9 12.4 92 0.7 N 24 33 13 18 - - 3.0
24/12:30am 14.0 9.1 12.7 92 0.7 N 30 33 16 18 - - 2.6
24/12:20am 13.9 9.8 12.7 92 0.7 N 26 30 14 16 - - 2.2
24/12:10am 13.8 10.5 12.8 94 0.6 NNE 22 33 12 18 - - 2.0
24/12:00am 14.1 10.8 12.7 91 0.8 NNE 22 28 12 15 - - 2.0
 
Date/Time
EDT
Temp
°C
App
Temp
°C
Dew
Point
°C
Rel
Hum
%
Delta-T
°C
Wind Press
QNH
hPa
Press
MSL
hPa
Rain since
9am
mm
Dir  Spd
km/h
Gust
km/h
Spd
kts
Gust
kts
23/11:50pm 14.2 13.3 12.6 90 0.9 NNW 9 11 5 6 - - 1.8
23/11:40pm 14.1 12.8 12.5 90 0.9 N 11 15 6 8 - - 1.6
23/11:30pm 14.0 12.7 12.4 90 0.9 NNW 11 11 6 6 - - 1.4
23/11:20pm 13.5 13.0 12.5 94 0.6 NNW 7 9 4 5 - - 1.4
23/11:10pm 13.8 13.0 12.8 94 0.6 N 9 11 5 6 - - 1.0
23/11:00pm 14.0 13.6 12.5 91 0.9 NE 6 7 3 4 - - 1.0
23/10:50pm 14.1 14.0 12.1 88 1.1 NE 4 6 2 3 - - 1.0
23/10:40pm 14.1 13.6 12.0 87 1.2 NNE 6 6 3 3 - - 1.0
23/10:30pm 13.9 13.4 12.1 89 1.0 N 6 7 3 4 - - 1.0
23/10:20pm 13.9 12.8 12.1 89 1.0 NW 9 11 5 6 - - 1.0
23/10:10pm 13.9 13.4 12.1 89 1.0 N 6 7 3 4 - - 1.0
23/10:00pm 13.8 13.9 12.6 92 0.7 ENE 4 6 2 3 - - 1.0
23/09:50pm 14.0 14.5 12.8 92 0.7 ESE 2 4 1 2 - - 1.0
23/09:40pm 14.1 13.5 12.2 88 1.1 WNW 7 9 4 5 - - 1.0
23/09:30pm 14.1 13.1 12.4 89 1.0 N 9 13 5 7 - - 1.0
23/09:20pm 14.1 12.5 12.9 92 0.7 NNE 13 15 7 8 - - 1.0
23/09:10pm 13.9 11.8 12.3 90 0.9 NW 15 17 8 9 - - 1.0
23/09:00pm 13.9 11.4 12.3 90 0.9 NW 17 19 9 10 - - 1.0
23/08:50pm 14.1 11.2 12.2 88 1.1 NW 19 24 10 13 - - 1.0
23/08:40pm 14.4 8.6 12.6 89 1.0 NW 35 44 19 24 - - 0.8
23/08:30pm 16.5 10.1 13.2 81 1.9 NNW 39 54 21 29 - - 0.4
23/08:20pm 18.4 14.8 10.6 60 4.4 NW 20 24 11 13 - - 0.0
23/08:10pm 18.6 13.8 10.2 58 4.7 NNW 26 30 14 16 - - 0.0
23/08:00pm 18.6 13.3 9.8 56 4.9 NNW 28 32 15 17 - - 0.0
23/07:50pm 18.7 14.5 9.9 56 4.9 NNW 22 28 12 15 - - 0.0
23/07:40pm 18.7 14.7 9.2 54 5.3 NNW 20 22 11 12 - - 0.0
23/07:30pm 18.2 14.8 9.3 56 4.9 N 17 20 9 11 - - 0.0
23/07:20pm 18.2 15.3 9.5 57 4.8 N 15 17 8 9 - - 0.0
23/07:10pm 18.7 15.0 10.2 57 4.8 N 20 24 11 13 - - 0.0
23/07:00pm 18.4 15.1 9.5 56 4.9 N 17 19 9 10 - - 0.0
23/06:50pm 18.4 15.1 9.7 57 4.8 N 17 20 9 11 - - 0.0
23/06:40pm 18.4 15.7 10.2 59 4.6 N 15 17 8 9 - - 0.0
23/06:30pm 18.9 15.0 9.4 54 5.3 NNW 20 28 11 15 - - 0.0
23/06:20pm 19.1 14.6 10.0 55 5.1 NNW 24 28 13 15 - - 0.0
23/06:10pm 19.1 15.0 10.0 55 5.1 NNW 22 28 12 15 - - 0.0
23/06:00pm 19.3 15.2 10.2 55 5.1 NNW 22 26 12 14 - - 0.0
23/05:50pm 19.6 14.3 10.0 54 5.4 N 28 32 15 17 - - 0.0
23/05:40pm 19.7 14.7 9.5 51 5.7 N 26 30 14 16 - - 0.0
23/05:30pm 20.1 15.2 9.8 51 5.8 NNW 26 33 14 18 - - 0.0
23/05:20pm 20.2 15.3 10.0 52 5.8 NNW 26 33 14 18 - - 0.0
23/05:10pm 20.2 15.2 8.2 46 6.6 N 24 30 13 16 - - 0.0
23/05:00pm 20.0 15.3 9.3 50 6.0 NNW 24 28 13 15 - - 0.0
23/04:50pm 19.9 16.2 10.1 53 5.5 NNW 20 28 11 15 - - 0.0
23/04:40pm 20.3 17.3 10.8 54 5.4 NNW 17 28 9 15 - - 0.0
23/04:30pm 20.8 16.8 11.9 56 5.2 NNW 24 30 13 16 - - 0.0
23/04:20pm 20.0 16.4 10.4 54 5.5 NNW 20 24 11 13 - - 0.0
23/04:10pm 19.1 14.3 11.8 62 4.2 NNW 28 32 15 17 - - 0.0
23/04:00pm 19.5 15.0 11.4 59 4.7 N 26 33 14 18 - - 0.0
23/03:50pm 20.0 16.0 11.8 59 4.8 N 24 30 13 16 - - 0.0
23/03:40pm 20.4 16.3 11.4 56 5.2 NNW 24 33 13 18 - - 0.0
23/03:30pm 20.2 14.4 9.4 50 6.0 N 30 37 16 20 - - 0.0
23/03:20pm 20.8 16.1 10.6 52 5.8 N 26 33 14 18 - - 0.0
23/03:10pm 20.5 16.9 11.8 57 5.1 N 22 32 12 17 - - 0.0
23/03:00pm 21.0 17.0 11.9 56 5.3 N 24 30 13 16 - - 0.0
23/02:50pm 20.2 14.4 11.6 57 5.0 NNW 33 37 18 20 - - 0.0
23/02:40pm 20.1 14.3 11.4 57 5.0 N 33 41 18 22 - - 0.0
23/02:30pm 20.9 15.6 11.3 54 5.6 N 30 35 16 19 - - 0.0
23/02:20pm 20.1 15.1 10.9 55 5.3 N 28 33 15 18 - - 0.0
23/02:10pm 20.8 14.9 10.6 52 5.8 NNW 32 37 17 20 - - 0.0
23/02:00pm 19.8 13.8 10.0 53 5.5 NNW 32 41 17 22 - - 0.0
23/01:50pm 20.3 15.7 11.0 55 5.4 N 26 33 14 18 - - 0.0
23/01:40pm 20.4 15.4 10.9 54 5.5 N 28 39 15 21 - - 0.0
23/01:30pm 20.5 14.8 11.1 54 5.4 NNW 32 39 17 21 - - 0.0
23/01:20pm 20.5 14.6 10.5 52 5.7 N 32 37 17 20 - - 0.0
23/01:10pm 21.6 14.5 11.0 51 6.1 NNW 39 43 21 23 - - 0.0
23/01:00pm 21.6 15.7 10.6 49 6.3 NNW 32 37 17 20 - - 0.0
23/12:50pm 22.2 16.7 12.0 52 6.0 NNW 32 37 17 20 - - 0.0
23/12:40pm 21.6 14.6 9.8 47 6.7 NNW 37 43 20 23 - - 0.0
23/12:30pm 21.3 15.1 9.9 48 6.5 NNW 33 41 18 22 - - 0.0
23/12:20pm 21.5 15.6 11.1 51 6.0 NNW 33 35 18 19 - - 0.0
23/12:10pm 21.2 14.3 10.2 49 6.3 NNW 37 43 20 23 - - 0.0
23/12:00pm 20.9 13.4 11.0 53 5.7 NNW 41 46 22 25 - - 0.0
23/11:50am 21.0 13.8 10.7 51 5.9 NNW 39 48 21 26 - - 0.0
23/11:40am 21.1 15.6 12.0 56 5.3 NNW 32 35 17 19 - - 0.0
23/11:30am 20.8 17.5 13.9 64 4.2 N 24 32 13 17 - - 0.0
23/11:20am 20.2 17.0 13.2 64 4.2 NNE 22 26 12 14 - - 0.0
23/11:10am 20.1 16.3 11.2 56 5.1 N 22 30 12 16 - - 0.0
23/11:00am 19.8 16.9 14.0 69 3.5 N 22 30 12 16 - - 0.0
23/10:50am 19.5 16.5 13.8 69 3.4 NNE 22 28 12 15 - - 0.0
23/10:40am 19.6 16.7 14.1 70 3.3 N 22 26 12 14 - - 0.0
23/10:30am 19.5 16.1 13.8 69 3.4 NNE 24 28 13 15 - - 0.0
23/10:20am 19.4 16.0 13.7 69 3.4 NNE 24 32 13 17 - - 0.0
23/10:10am 19.8 16.6 14.2 70 3.4 N 24 30 13 16 - - 0.0
23/10:00am 20.1 17.4 13.6 66 3.9 N 20 24 11 13 - - 0.0
23/09:50am 19.6 17.1 12.3 62 4.3 NNW 17 20 9 11 - - 0.0
23/09:40am 18.6 18.2 12.5 67 3.6 NW 6 15 3 8 - - 0.0
23/09:30am 18.0 18.0 13.6 75 2.6 SE 6 6 3 3 - - 0.0
23/09:20am 16.7 16.6 13.3 80 2.0 ESE 6 6 3 3 - - 0.0
23/09:10am 15.3 15.3 12.3 82 1.7 WSW 4 6 2 3 - - 0.0
23/09:00am 14.5 14.5 12.5 88 1.1 SE 4 6 2 3 - - 0.0
23/08:50am 15.2 14.9 12.6 84 1.5 SE 6 7 3 4 - - 0.0
23/08:40am 15.9 15.8 12.1 78 2.2 E 4 6 2 3 - - 0.0
23/08:30am 14.2 13.9 11.6 84 1.5 N 4 4 2 2 - - 0.0
23/08:20am 13.5 13.2 11.5 88 1.1 N 4 4 2 2 - - 0.0
23/08:10am 12.7 12.8 11.4 92 0.7 SE 2 4 1 2 - - 0.0
23/08:00am 11.7 11.6 10.7 94 0.5 S 2 4 1 2 - - 0.0
23/07:50am 10.5 9.8 10.0 97 0.3 S 4 6 2 3 - - 0.0
23/07:40am 9.6 8.2 8.8 95 0.4 SSE 6 6 3 3 - - 0.0
23/07:30am 10.0 9.1 9.4 96 0.3 S 4 6 2 3 - - 0.0
23/07:20am 9.0 7.9 8.6 97 0.2 WNW 4 6 2 3 - - 0.0
23/07:10am 8.6 7.5 8.3 98 0.2 NNW 4 6 2 3 - - 0.0
23/07:00am 8.4 7.6 8.3 99 0.1 SSE 2 4 1 2 - - 0.0
23/06:50am 7.8 6.1 7.7 99 0.1 S 6 6 3 3 - - 0.0
23/06:40am 8.1 6.9 8.0 99 0.1 SSE 4 6 2 3 - - 0.0
23/06:30am 8.2 7.4 8.1 99 0.1 SSE 2 2 1 1 - - 0.0
23/06:20am 8.4 7.6 8.3 99 0.1 SSW 2 2 1 1 - - 0.0
23/06:10am 8.6 7.9 8.4 99 0.1 NE 2 2 1 1 - - 0.0
23/06:00am 8.8 8.1 8.5 98 0.2 NE 2 4 1 2 - - 0.0
23/05:50am 8.6 7.4 7.9 95 0.4 SSE 4 6 2 3 - - 0.0
23/05:40am 8.2 6.8 7.2 93 0.5 SE 4 4 2 2 - - 0.0
23/05:30am 8.5 7.5 7.3 92 0.6 ENE 2 4 1 2 - - 0.0
23/05:20am 8.5 7.5 7.5 93 0.5 ENE 2 4 1 2 - - 0.0
23/05:10am 8.5 7.1 7.3 92 0.6 ENE 4 4 2 2 - - 0.0
23/05:00am 8.6 7.2 7.4 92 0.6 ESE 4 7 2 4 - - 0.0
23/04:50am 8.5 7.0 6.7 88 0.9 NNE 4 4 2 2 - - 0.0
23/04:40am 8.8 7.7 6.7 87 1.0 NNW 2 4 1 2 - - 0.0
23/04:30am 8.6 7.1 6.6 87 1.0 WNW 4 6 2 3 - - 0.0
23/04:20am 8.6 7.1 6.7 88 0.9 S 4 7 2 4 - - 0.0
23/04:10am 9.0 6.9 6.8 86 1.1 S 7 7 4 4 - - 0.0
23/04:00am 8.5 6.4 6.6 88 0.9 S 7 9 4 5 - - 0.0
23/03:50am 9.5 7.5 6.4 81 1.5 SSE 6 7 3 4 - - 0.0
23/03:40am 9.4 7.7 6.1 80 1.6 SE 4 6 2 3 - - 0.0
23/03:30am 9.0 7.4 6.2 82 1.4 ESE 4 6 2 3 - - 0.0
23/03:20am 8.9 7.3 6.2 83 1.3 E 4 6 2 3 - - 0.0
23/03:10am 9.4 8.2 6.4 81 1.5 N 2 4 1 2 - - 0.0
23/03:00am 9.2 8.0 6.3 82 1.4 NE 2 4 1 2 - - 0.0
23/02:50am 9.3 7.7 6.2 81 1.5 NW 4 6 2 3 - - 0.0
23/02:40am 9.5 7.8 6.0 79 1.7 NNW 4 6 2 3 - - 0.0
23/02:30am 9.6 8.0 6.2 79 1.7 N 4 6 2 3 - - 0.0
23/02:20am 9.6 8.3 6.2 79 1.7 N 2 2 1 1 - - 0.0
23/02:10am 9.4 8.2 6.6 83 1.4 WSW 2 2 1 1 - - 0.0
23/02:00am 9.4 8.1 6.1 80 1.6 WSW 2 4 1 2 - - 0.0
23/01:50am 9.4 7.8 6.5 82 1.4 SW 4 4 2 2 - - 0.0
23/01:40am 9.5 7.8 5.7 77 1.8 S 4 4 2 2 - - 0.0
23/01:30am 9.5 8.4 6.8 83 1.3 S 2 4 1 2 - - 0.0
23/01:20am 9.7 8.6 6.7 81 1.5 SSE 2 4 1 2 - - 0.0

Other formats

Comma delimited format used in spreadsheet applications
http://www.bom.gov.au/fwo/IDN60801/IDN60801.99765.axf

JavaScript Object Notation format (JSON) in row-major order
http://www.bom.gov.au/fwo/IDN60801/IDN60801.99765.json

Data quality

Most of these data are generated automatically and are frequently updated. Quality checks on data are not normally performed. It is possible for incorrect values to appear. Refer to information at About Latest Weather Observations and please check the disclaimer before using these data.